West Granby, Connecticut
Current Conditions -  °F | °C
As of 10:51 AM on Thursday 23 Oct 2014 (Local Time) from KBDL Reporting Station
Overcast Overcast  
Wind Chill: 52°   Ceiling: 1800
Heat Index: 52°   Visibility: 10mi
Dew Point: 46°   Wind: 16mph
Humidity: 80%   Direction: 360°N
Pressure: 29.67"   Gusts: 26mph
Location:  41.96°N, 72.84°W
Report Text: KBDL 231451Z 36014G23KT 10SM BKN018 OVC026 11/08 A2967 RMK AO2 PK WND 36026/1401 RAB1352E05 SLP047 P0000 60005 T01110078 50001
Loading
Personal Weather Stations






























Interactive Weather Map
Tropical Storm Tracking
New forecast layout! Learn more

10-Day Weather Forecast

Advertisements
Track Severe Weather on mobile